Zefira — 9HA2459 — position and weather

sailwx.info

Track history (hours):
 
Tides and Currents Weather Stations Pressure Air Temp Water Temp Dewpoint Dewpoint Depression Visibility Wind Speed Wind Dir Waves Ship Positions

Zefira

Last reported at 2014-Jul-20 10:22 UTC. Time now 2014-Jul-29 08:43 UTC.
Position N 41°02' E 009°32'.
Warning: this ship's position is 8 days out of date.

Length 50 m; draft 4.9 m.

Type: Pleasure craft. MMSI: 248663000.

Date/timePositionNaut miles runAvg speedWind from/ knotsBaromVisibWave heightAir tempDewpointWater temp
2014-Jul-20 10:22N 41°02' E 009°32'0 0.0
2014-Jul-20 06:10N 41°02' E 009°32'0 0.0
2014-Jul-20 02:19N 41°02' E 009°32'1 0.1
2014-Jul-19 14:21N 41°03' E 009°32'0 0.0
2014-Jul-19 12:24N 41°03' E 009°32'0 0.0
2014-Jul-19 11:30N 41°03' E 009°32'0 0.0
2014-Jul-19 10:33N 41°03' E 009°32'0 0.0
2014-Jul-19 09:24N 41°03' E 009°32'0 0.0
2014-Jul-18 12:30N 41°03' E 009°32'78 1.8
2014-Jul-16 18:30N 40°58' E 011°15'9 9.0
2014-Jul-16 17:33N 40°57' E 011°26'9 9.0
2014-Jul-16 16:33N 40°57' E 011°38'10 9.7
2014-Jul-16 15:33N 40°56' E 011°51'19 9.4
2014-Jul-16 13:33N 40°55' E 012°16'20 9.7
2014-Jul-16 11:29N 40°53' E 012°42'9 9.5
2014-Jul-16 10:33N 40°53' E 012°54'4 2.8
2014-Jul-16 09:11N 40°54' E 012°58'0 0.0
2014-Jul-16 06:05N 40°54' E 012°58'0 0.0
2014-Jul-16 01:20N 40°54' E 012°58'0 0.0
2014-Jul-16 00:32N 40°54' E 012°58'0 0.0
2014-Jul-15 23:29N 40°54' E 012°58'0 0.0
2014-Jul-15 22:26N 40°54' E 012°58'0 0.0
2014-Jul-15 20:08N 40°54' E 012°58'0 0.0
2014-Jul-15 19:29N 40°54' E 012°58'0 0.0
2014-Jul-15 18:32N 40°54' E 012°58'0 0.0
2014-Jul-15 17:32N 40°54' E 012°58'  
Track history (hours):
 
Tides and Currents Weather Stations Pressure Air Temp Water Temp Dewpoint Dewpoint Depression Visibility Wind Speed Wind Dir Waves Ship Positions

Zefira

Last reported at 2014-Jul-20 10:22 UTC. Time now 2014-Jul-29 08:43 UTC.
Position N 41°02' E 009°32'.
Warning: this ship's position is 8 days out of date.

Length 50 m; draft 4.9 m.

Type: Pleasure craft. MMSI: 248663000.

Date/timePositionNaut miles runAvg speedWind from/ knotsBaromVisibWave heightAir tempDewpointWater temp
2014-Jul-20 10:22N 41°02' E 009°32'0 0.0
2014-Jul-20 06:10N 41°02' E 009°32'0 0.0
2014-Jul-20 02:19N 41°02' E 009°32'1 0.1
2014-Jul-19 14:21N 41°03' E 009°32'0 0.0
2014-Jul-19 12:24N 41°03' E 009°32'0 0.0
2014-Jul-19 11:30N 41°03' E 009°32'0 0.0
2014-Jul-19 10:33N 41°03' E 009°32'0 0.0
2014-Jul-19 09:24N 41°03' E 009°32'0 0.0
2014-Jul-18 12:30N 41°03' E 009°32'78 1.8
2014-Jul-16 18:30N 40°58' E 011°15'9 9.0
2014-Jul-16 17:33N 40°57' E 011°26'9 9.0
2014-Jul-16 16:33N 40°57' E 011°38'10 9.7
2014-Jul-16 15:33N 40°56' E 011°51'19 9.4
2014-Jul-16 13:33N 40°55' E 012°16'20 9.7
2014-Jul-16 11:29N 40°53' E 012°42'9 9.5
2014-Jul-16 10:33N 40°53' E 012°54'4 2.8
2014-Jul-16 09:11N 40°54' E 012°58'0 0.0
2014-Jul-16 06:05N 40°54' E 012°58'0 0.0
2014-Jul-16 01:20N 40°54' E 012°58'0 0.0
2014-Jul-16 00:32N 40°54' E 012°58'0 0.0
2014-Jul-15 23:29N 40°54' E 012°58'0 0.0
2014-Jul-15 22:26N 40°54' E 012°58'0 0.0
2014-Jul-15 20:08N 40°54' E 012°58'0 0.0
2014-Jul-15 19:29N 40°54' E 012°58'0 0.0
2014-Jul-15 18:32N 40°54' E 012°58'0 0.0
2014-Jul-15 17:32N 40°54' E 012°58'  

Dump ship's entire track history